80NC weather

May Airport
Greensboro, North Carolina, United States

Public forecast

Using degrees Fahrenheit for public forecast. Weather courtesy of forecast.io.

METAR (pilot weather report)

Closest report is Burlington Alamance Regional Airport, 10.8 nm (20.1 km) ENE. Retrieved 2019/09/17 04:54 UTC (38 minutes ago):

KBUY 170454Z AUTO 00000KT 10SM SCT090 21/18 A2999 RMK AO2 SLP147 T02110178 403560189

TAF (pilot weather forecast)

Forecast is more than 12 hours old.

Closest forecast is Piedmont Triad International Airport, 13.4 nm (24.9 km) WNW. Retrieved 2019/09/16 00:51 UTC (1 day ago):

TAF KGSO 162340Z 1700/1724 VRB03KT P6SM SCT080 FM172300 06007KT P6SM VCSH SCT040